sensor_id;sensor_type;location;lat;lon;timestamp;P1;durP1;ratioP1;P2;durP2;ratioP2
37517;SDS011;23366;52.498;13.446;2023-07-31T00:01:03;1.02;;;0.70;;
37517;SDS011;23366;52.498;13.446;2023-07-31T00:03:29;2.05;;;0.80;;
37517;SDS011;23366;52.498;13.446;2023-07-31T00:05:54;2.92;;;0.85;;
37517;SDS011;23366;52.498;13.446;2023-07-31T00:08:20;2.33;;;1.33;;
37517;SDS011;23366;52.498;13.446;2023-07-31T00:10:45;1.55;;;0.95;;
37517;SDS011;23366;52.498;13.446;2023-07-31T00:13:11;4.43;;;1.10;;
37517;SDS011;23366;52.498;13.446;2023-07-31T00:15:36;3.85;;;0.80;;
37517;SDS011;23366;52.498;13.446;2023-07-31T00:18:01;2.97;;;1.17;;
37517;SDS011;23366;52.498;13.446;2023-07-31T00:20:27;3.47;;;1.15;;
37517;SDS011;23366;52.498;13.446;2023-07-31T00:22:53;3.38;;;1.55;;
37517;SDS011;23366;52.498;13.446;2023-07-31T00:25:18;1.73;;;0.90;;
37517;SDS011;23366;52.498;13.446;2023-07-31T00:27:43;4.22;;;1.40;;
37517;SDS011;23366;52.498;13.446;2023-07-31T00:30:11;2.53;;;1.00;;
37517;SDS011;23366;52.498;13.446;2023-07-31T00:32:36;1.55;;;1.08;;
37517;SDS011;23366;52.498;13.446;2023-07-31T00:35:02;2.97;;;0.90;;
37517;SDS011;23366;52.498;13.446;2023-07-31T00:37:29;2.72;;;1.30;;
37517;SDS011;23366;52.498;13.446;2023-07-31T00:39:54;4.80;;;1.42;;
37517;SDS011;23366;52.498;13.446;2023-07-31T00:42:20;5.13;;;0.95;;
37517;SDS011;23366;52.498;13.446;2023-07-31T00:44:45;5.20;;;1.10;;
37517;SDS011;23366;52.498;13.446;2023-07-31T00:47:10;4.47;;;1.42;;
37517;SDS011;23366;52.498;13.446;2023-07-31T00:49:36;3.15;;;1.27;;
37517;SDS011;23366;52.498;13.446;2023-07-31T00:52:02;2.55;;;1.10;;
37517;SDS011;23366;52.498;13.446;2023-07-31T00:54:28;4.10;;;1.13;;
37517;SDS011;23366;52.498;13.446;2023-07-31T00:56:53;1.30;;;0.82;;
37517;SDS011;23366;52.498;13.446;2023-07-31T00:59:19;3.85;;;2.35;;
37517;SDS011;23366;52.498;13.446;2023-07-31T01:01:45;5.40;;;1.63;;
37517;SDS011;23366;52.498;13.446;2023-07-31T01:04:11;4.40;;;1.48;;
37517;SDS011;23366;52.498;13.446;2023-07-31T01:12:15;2.78;;;1.33;;
37517;SDS011;23366;52.498;13.446;2023-07-31T01:15:03;5.57;;;1.58;;
37517;SDS011;23366;52.498;13.446;2023-07-31T01:17:28;1.50;;;0.90;;
37517;SDS011;23366;52.498;13.446;2023-07-31T01:19:54;5.22;;;1.30;;
37517;SDS011;23366;52.498;13.446;2023-07-31T01:28:09;3.70;;;1.35;;
37517;SDS011;23366;52.498;13.446;2023-07-31T01:30:43;3.10;;;1.33;;
37517;SDS011;23366;52.498;13.446;2023-07-31T01:33:12;4.00;;;2.90;;
37517;SDS011;23366;52.498;13.446;2023-07-31T01:35:39;5.20;;;1.30;;
37517;SDS011;23366;52.498;13.446;2023-07-31T01:38:08;1.65;;;1.17;;
37517;SDS011;23366;52.498;13.446;2023-07-31T01:40:34;1.55;;;1.00;;
37517;SDS011;23366;52.498;13.446;2023-07-31T01:42:59;2.40;;;1.25;;
37517;SDS011;23366;52.498;13.446;2023-07-31T01:45:25;3.75;;;1.45;;
37517;SDS011;23366;52.498;13.446;2023-07-31T01:47:50;5.22;;;1.70;;
37517;SDS011;23366;52.498;13.446;2023-07-31T01:50:16;2.80;;;2.28;;
37517;SDS011;23366;52.498;13.446;2023-07-31T01:52:41;1.30;;;1.05;;
37517;SDS011;23366;52.498;13.446;2023-07-31T01:55:07;1.55;;;1.23;;
37517;SDS011;23366;52.498;13.446;2023-07-31T01:57:32;2.40;;;1.40;;
37517;SDS011;23366;52.498;13.446;2023-07-31T01:59:58;3.03;;;1.67;;
37517;SDS011;23366;52.498;13.446;2023-07-31T02:02:24;1.58;;;1.08;;
37517;SDS011;23366;52.498;13.446;2023-07-31T02:04:49;1.75;;;1.08;;
37517;SDS011;23366;52.498;13.446;2023-07-31T02:07:15;3.97;;;1.30;;
37517;SDS011;23366;52.498;13.446;2023-07-31T02:09:40;2.03;;;1.35;;
37517;SDS011;23366;52.498;13.446;2023-07-31T02:12:06;3.65;;;1.25;;
37517;SDS011;23366;52.498;13.446;2023-07-31T02:14:33;2.35;;;1.38;;
37517;SDS011;23366;52.498;13.446;2023-07-31T02:16:59;3.10;;;2.13;;
37517;SDS011;23366;52.498;13.446;2023-07-31T02:19:24;3.22;;;1.33;;
37517;SDS011;23366;52.498;13.446;2023-07-31T02:21:50;1.77;;;1.20;;
37517;SDS011;23366;52.498;13.446;2023-07-31T02:24:15;1.45;;;1.10;;
37517;SDS011;23366;52.498;13.446;2023-07-31T02:26:41;2.28;;;1.42;;
37517;SDS011;23366;52.498;13.446;2023-07-31T02:29:07;1.77;;;1.20;;
37517;SDS011;23366;52.498;13.446;2023-07-31T02:31:33;1.50;;;1.35;;
37517;SDS011;23366;52.498;13.446;2023-07-31T02:33:58;3.35;;;1.25;;
37517;SDS011;23366;52.498;13.446;2023-07-31T02:36:24;6.15;;;1.50;;
37517;SDS011;23366;52.498;13.446;2023-07-31T02:38:49;1.90;;;1.50;;
37517;SDS011;23366;52.498;13.446;2023-07-31T02:41:15;5.18;;;1.58;;
37517;SDS011;23366;52.498;13.446;2023-07-31T02:43:40;3.25;;;1.38;;
37517;SDS011;23366;52.498;13.446;2023-07-31T02:46:06;3.20;;;1.58;;
37517;SDS011;23366;52.498;13.446;2023-07-31T02:48:31;3.75;;;1.90;;
37517;SDS011;23366;52.498;13.446;2023-07-31T02:50:57;3.75;;;1.75;;
37517;SDS011;23366;52.498;13.446;2023-07-31T02:53:22;2.70;;;2.00;;
37517;SDS011;23366;52.498;13.446;2023-07-31T02:55:48;2.45;;;1.20;;
37517;SDS011;23366;52.498;13.446;2023-07-31T02:58:13;1.83;;;1.48;;
37517;SDS011;23366;52.498;13.446;2023-07-31T03:00:42;6.97;;;2.08;;
37517;SDS011;23366;52.498;13.446;2023-07-31T03:03:08;4.15;;;1.83;;
37517;SDS011;23366;52.498;13.446;2023-07-31T03:05:33;3.65;;;1.73;;
37517;SDS011;23366;52.498;13.446;2023-07-31T03:07:59;7.65;;;2.10;;
37517;SDS011;23366;52.498;13.446;2023-07-31T03:10:24;6.78;;;2.55;;
37517;SDS011;23366;52.498;13.446;2023-07-31T03:12:50;2.97;;;1.80;;
37517;SDS011;23366;52.498;13.446;2023-07-31T03:15:15;4.20;;;1.90;;
37517;SDS011;23366;52.498;13.446;2023-07-31T03:17:41;3.08;;;2.22;;
37517;SDS011;23366;52.498;13.446;2023-07-31T03:20:06;10.07;;;2.58;;
37517;SDS011;23366;52.498;13.446;2023-07-31T03:22:33;4.32;;;2.47;;
37517;SDS011;23366;52.498;13.446;2023-07-31T03:25:00;3.22;;;2.47;;
37517;SDS011;23366;52.498;13.446;2023-07-31T03:27:26;2.42;;;2.22;;
37517;SDS011;23366;52.498;13.446;2023-07-31T03:29:51;6.47;;;2.67;;
37517;SDS011;23366;52.498;13.446;2023-07-31T03:32:17;3.75;;;2.58;;
37517;SDS011;23366;52.498;13.446;2023-07-31T03:34:42;3.63;;;2.53;;
37517;SDS011;23366;52.498;13.446;2023-07-31T03:37:07;3.88;;;2.80;;
37517;SDS011;23366;52.498;13.446;2023-07-31T03:39:34;2.70;;;2.28;;
37517;SDS011;23366;52.498;13.446;2023-07-31T03:42:00;2.92;;;2.63;;
37517;SDS011;23366;52.498;13.446;2023-07-31T03:44:25;5.28;;;3.33;;
37517;SDS011;23366;52.498;13.446;2023-07-31T03:46:51;13.57;;;4.38;;
37517;SDS011;23366;52.498;13.446;2023-07-31T03:49:16;8.38;;;3.45;;
37517;SDS011;23366;52.498;13.446;2023-07-31T03:51:42;6.65;;;2.42;;
37517;SDS011;23366;52.498;13.446;2023-07-31T03:54:07;4.00;;;2.97;;
37517;SDS011;23366;52.498;13.446;2023-07-31T03:56:33;4.28;;;2.45;;
37517;SDS011;23366;52.498;13.446;2023-07-31T03:58:58;3.10;;;2.80;;
37517;SDS011;23366;52.498;13.446;2023-07-31T04:01:24;6.03;;;2.67;;
37517;SDS011;23366;52.498;13.446;2023-07-31T04:03:49;3.20;;;2.53;;
37517;SDS011;23366;52.498;13.446;2023-07-31T04:06:15;4.18;;;2.63;;
37517;SDS011;23366;52.498;13.446;2023-07-31T04:08:43;3.22;;;1.88;;
37517;SDS011;23366;52.498;13.446;2023-07-31T04:11:11;3.42;;;2.20;;
37517;SDS011;23366;52.498;13.446;2023-07-31T04:13:37;3.63;;;2.33;;
37517;SDS011;23366;52.498;13.446;2023-07-31T04:16:03;3.67;;;2.03;;
37517;SDS011;23366;52.498;13.446;2023-07-31T04:18:29;4.32;;;2.63;;
37517;SDS011;23366;52.498;13.446;2023-07-31T04:20:56;10.75;;;3.22;;
37517;SDS011;23366;52.498;13.446;2023-07-31T04:23:23;3.72;;;2.75;;
37517;SDS011;23366;52.498;13.446;2023-07-31T04:25:48;3.17;;;2.45;;
37517;SDS011;23366;52.498;13.446;2023-07-31T04:28:14;5.00;;;2.67;;
37517;SDS011;23366;52.498;13.446;2023-07-31T04:30:39;9.38;;;2.60;;
37517;SDS011;23366;52.498;13.446;2023-07-31T04:33:05;4.40;;;2.58;;
37517;SDS011;23366;52.498;13.446;2023-07-31T04:35:30;3.00;;;2.33;;
37517;SDS011;23366;52.498;13.446;2023-07-31T04:37:56;4.63;;;2.47;;
37517;SDS011;23366;52.498;13.446;2023-07-31T04:40:21;4.60;;;2.25;;
37517;SDS011;23366;52.498;13.446;2023-07-31T04:42:47;3.65;;;2.42;;
37517;SDS011;23366;52.498;13.446;2023-07-31T04:45:12;2.42;;;2.22;;
37517;SDS011;23366;52.498;13.446;2023-07-31T04:47:38;2.95;;;2.42;;
37517;SDS011;23366;52.498;13.446;2023-07-31T04:50:04;3.25;;;2.55;;
37517;SDS011;23366;52.498;13.446;2023-07-31T04:52:30;4.30;;;1.67;;
37517;SDS011;23366;52.498;13.446;2023-07-31T04:54:55;4.43;;;1.88;;
37517;SDS011;23366;52.498;13.446;2023-07-31T04:57:21;3.50;;;2.30;;
37517;SDS011;23366;52.498;13.446;2023-07-31T04:59:46;3.35;;;2.35;;
37517;SDS011;23366;52.498;13.446;2023-07-31T05:02:12;3.13;;;2.28;;
37517;SDS011;23366;52.498;13.446;2023-07-31T05:04:38;3.13;;;2.00;;
37517;SDS011;23366;52.498;13.446;2023-07-31T05:07:04;4.20;;;2.45;;
37517;SDS011;23366;52.498;13.446;2023-07-31T05:09:29;5.22;;;2.47;;
37517;SDS011;23366;52.498;13.446;2023-07-31T05:11:55;4.07;;;2.97;;
37517;SDS011;23366;52.498;13.446;2023-07-31T05:14:20;2.55;;;1.98;;
37517;SDS011;23366;52.498;13.446;2023-07-31T05:16:46;5.32;;;2.40;;
37517;SDS011;23366;52.498;13.446;2023-07-31T05:19:11;3.47;;;1.98;;
37517;SDS011;23366;52.498;13.446;2023-07-31T05:21:36;4.70;;;1.90;;
37517;SDS011;23366;52.498;13.446;2023-07-31T05:24:02;3.35;;;2.55;;
37517;SDS011;23366;52.498;13.446;2023-07-31T05:26:28;5.10;;;3.03;;
37517;SDS011;23366;52.498;13.446;2023-07-31T05:28:53;3.88;;;1.50;;
37517;SDS011;23366;52.498;13.446;2023-07-31T05:31:19;2.15;;;1.95;;
37517;SDS011;23366;52.498;13.446;2023-07-31T05:33:45;5.60;;;3.30;;
37517;SDS011;23366;52.498;13.446;2023-07-31T05:36:11;8.90;;;1.80;;
37517;SDS011;23366;52.498;13.446;2023-07-31T05:38:36;7.07;;;2.10;;
37517;SDS011;23366;52.498;13.446;2023-07-31T05:41:02;3.55;;;1.70;;
37517;SDS011;23366;52.498;13.446;2023-07-31T05:43:27;9.45;;;3.03;;
37517;SDS011;23366;52.498;13.446;2023-07-31T05:45:53;2.03;;;1.35;;
37517;SDS011;23366;52.498;13.446;2023-07-31T05:48:18;2.78;;;1.83;;
37517;SDS011;23366;52.498;13.446;2023-07-31T05:50:44;5.88;;;2.42;;
37517;SDS011;23366;52.498;13.446;2023-07-31T05:53:09;3.25;;;1.80;;
37517;SDS011;23366;52.498;13.446;2023-07-31T05:55:35;5.93;;;1.70;;
37517;SDS011;23366;52.498;13.446;2023-07-31T05:58:01;4.90;;;1.90;;
37517;SDS011;23366;52.498;13.446;2023-07-31T06:00:26;5.45;;;1.83;;
37517;SDS011;23366;52.498;13.446;2023-07-31T06:02:52;5.20;;;1.75;;
37517;SDS011;23366;52.498;13.446;2023-07-31T06:05:18;5.78;;;2.42;;
37517;SDS011;23366;52.498;13.446;2023-07-31T06:07:43;3.95;;;2.22;;
37517;SDS011;23366;52.498;13.446;2023-07-31T06:10:09;6.32;;;2.83;;
37517;SDS011;23366;52.498;13.446;2023-07-31T06:12:35;3.83;;;1.52;;
37517;SDS011;23366;52.498;13.446;2023-07-31T06:15:01;6.72;;;2.42;;
37517;SDS011;23366;52.498;13.446;2023-07-31T06:17:27;7.93;;;3.08;;
37517;SDS011;23366;52.498;13.446;2023-07-31T06:19:53;4.50;;;1.98;;
37517;SDS011;23366;52.498;13.446;2023-07-31T06:22:19;2.60;;;1.67;;
37517;SDS011;23366;52.498;13.446;2023-07-31T06:24:44;3.28;;;1.73;;
37517;SDS011;23366;52.498;13.446;2023-07-31T06:27:11;4.32;;;2.05;;
37517;SDS011;23366;52.498;13.446;2023-07-31T06:29:36;4.07;;;3.13;;
37517;SDS011;23366;52.498;13.446;2023-07-31T06:32:02;2.55;;;1.48;;
37517;SDS011;23366;52.498;13.446;2023-07-31T06:34:28;2.45;;;1.35;;
37517;SDS011;23366;52.498;13.446;2023-07-31T06:36:53;3.03;;;1.73;;
37517;SDS011;23366;52.498;13.446;2023-07-31T06:39:19;2.03;;;1.55;;
37517;SDS011;23366;52.498;13.446;2023-07-31T06:41:45;4.30;;;1.48;;
37517;SDS011;23366;52.498;13.446;2023-07-31T06:44:10;7.78;;;2.20;;
37517;SDS011;23366;52.498;13.446;2023-07-31T06:46:36;7.13;;;2.30;;
37517;SDS011;23366;52.498;13.446;2023-07-31T06:49:02;1.92;;;1.30;;
37517;SDS011;23366;52.498;13.446;2023-07-31T06:51:27;2.58;;;1.52;;
37517;SDS011;23366;52.498;13.446;2023-07-31T06:53:52;5.38;;;1.77;;
37517;SDS011;23366;52.498;13.446;2023-07-31T06:56:18;3.13;;;1.75;;
37517;SDS011;23366;52.498;13.446;2023-07-31T06:58:43;7.72;;;1.60;;
37517;SDS011;23366;52.498;13.446;2023-07-31T07:01:09;2.45;;;1.20;;
37517;SDS011;23366;52.498;13.446;2023-07-31T07:03:34;6.50;;;1.88;;
37517;SDS011;23366;52.498;13.446;2023-07-31T07:06:00;7.15;;;1.65;;
37517;SDS011;23366;52.498;13.446;2023-07-31T07:08:26;4.57;;;2.03;;
37517;SDS011;23366;52.498;13.446;2023-07-31T07:10:51;3.03;;;1.70;;
37517;SDS011;23366;52.498;13.446;2023-07-31T07:13:16;2.70;;;1.33;;
37517;SDS011;23366;52.498;13.446;2023-07-31T07:15:43;2.58;;;1.02;;
37517;SDS011;23366;52.498;13.446;2023-07-31T07:18:12;2.92;;;1.70;;
37517;SDS011;23366;52.498;13.446;2023-07-31T07:20:38;4.78;;;2.17;;
37517;SDS011;23366;52.498;13.446;2023-07-31T07:23:04;2.05;;;1.42;;
37517;SDS011;23366;52.498;13.446;2023-07-31T07:25:30;2.35;;;1.33;;
37517;SDS011;23366;52.498;13.446;2023-07-31T07:27:55;7.90;;;2.22;;
37517;SDS011;23366;52.498;13.446;2023-07-31T07:30:20;6.20;;;1.23;;
37517;SDS011;23366;52.498;13.446;2023-07-31T07:32:46;1.60;;;1.10;;
37517;SDS011;23366;52.498;13.446;2023-07-31T07:35:11;3.25;;;1.70;;
37517;SDS011;23366;52.498;13.446;2023-07-31T07:37:37;1.98;;;1.30;;
37517;SDS011;23366;52.498;13.446;2023-07-31T07:40:02;4.93;;;2.05;;
37517;SDS011;23366;52.498;13.446;2023-07-31T07:42:28;2.70;;;1.92;;
37517;SDS011;23366;52.498;13.446;2023-07-31T07:44:54;2.10;;;1.10;;
37517;SDS011;23366;52.498;13.446;2023-07-31T07:47:19;2.42;;;1.27;;
37517;SDS011;23366;52.498;13.446;2023-07-31T07:49:45;3.10;;;1.27;;
37517;SDS011;23366;52.498;13.446;2023-07-31T07:52:10;3.45;;;1.33;;
37517;SDS011;23366;52.498;13.446;2023-07-31T07:54:36;3.08;;;1.30;;
37517;SDS011;23366;52.498;13.446;2023-07-31T07:57:01;2.80;;;1.33;;
37517;SDS011;23366;52.498;13.446;2023-07-31T07:59:27;2.47;;;1.25;;
37517;SDS011;23366;52.498;13.446;2023-07-31T08:01:52;2.70;;;1.48;;
37517;SDS011;23366;52.498;13.446;2023-07-31T08:04:18;3.60;;;1.20;;
37517;SDS011;23366;52.498;13.446;2023-07-31T08:06:43;3.35;;;1.30;;
37517;SDS011;23366;52.498;13.446;2023-07-31T08:09:09;2.13;;;1.17;;
37517;SDS011;23366;52.498;13.446;2023-07-31T08:11:35;2.33;;;1.33;;
37517;SDS011;23366;52.498;13.446;2023-07-31T08:14:00;2.38;;;1.15;;
37517;SDS011;23366;52.498;13.446;2023-07-31T08:16:26;3.92;;;0.93;;
37517;SDS011;23366;52.498;13.446;2023-07-31T08:18:51;1.42;;;0.93;;
37517;SDS011;23366;52.498;13.446;2023-07-31T08:21:17;2.03;;;1.23;;
37517;SDS011;23366;52.498;13.446;2023-07-31T08:23:42;1.38;;;1.17;;
37517;SDS011;23366;52.498;13.446;2023-07-31T08:26:08;2.67;;;0.70;;
37517;SDS011;23366;52.498;13.446;2023-07-31T08:28:39;1.73;;;0.95;;
37517;SDS011;23366;52.498;13.446;2023-07-31T08:31:05;1.58;;;1.17;;
37517;SDS011;23366;52.498;13.446;2023-07-31T08:33:30;2.15;;;1.20;;
37517;SDS011;23366;52.498;13.446;2023-07-31T08:35:56;1.70;;;0.95;;
37517;SDS011;23366;52.498;13.446;2023-07-31T08:38:22;4.35;;;1.15;;
37517;SDS011;23366;52.498;13.446;2023-07-31T08:40:50;1.02;;;0.75;;
37517;SDS011;23366;52.498;13.446;2023-07-31T08:43:15;2.38;;;1.38;;
37517;SDS011;23366;52.498;13.446;2023-07-31T08:45:41;2.00;;;1.23;;
37517;SDS011;23366;52.498;13.446;2023-07-31T08:48:07;1.35;;;1.15;;
37517;SDS011;23366;52.498;13.446;2023-07-31T08:50:33;1.27;;;0.90;;
37517;SDS011;23366;52.498;13.446;2023-07-31T08:52:59;2.67;;;0.77;;
37517;SDS011;23366;52.498;13.446;2023-07-31T08:55:25;1.50;;;1.08;;
37517;SDS011;23366;52.498;13.446;2023-07-31T08:57:52;1.15;;;1.05;;
37517;SDS011;23366;52.498;13.446;2023-07-31T09:00:20;1.33;;;1.00;;
37517;SDS011;23366;52.498;13.446;2023-07-31T09:05:16;1.70;;;1.10;;
37517;SDS011;23366;52.498;13.446;2023-07-31T09:07:44;2.95;;;1.33;;
37517;SDS011;23366;52.498;13.446;2023-07-31T09:10:12;2.10;;;1.42;;
37517;SDS011;23366;52.498;13.446;2023-07-31T09:12:38;1.90;;;1.50;;
37517;SDS011;23366;52.498;13.446;2023-07-31T09:15:04;2.45;;;1.15;;
37517;SDS011;23366;52.498;13.446;2023-07-31T09:17:34;1.65;;;1.15;;
37517;SDS011;23366;52.498;13.446;2023-07-31T09:20:20;2.55;;;1.40;;
37517;SDS011;23366;52.498;13.446;2023-07-31T09:22:46;1.63;;;1.05;;
37517;SDS011;23366;52.498;13.446;2023-07-31T09:25:23;1.33;;;0.88;;
37517;SDS011;23366;52.498;13.446;2023-07-31T09:30:16;0.93;;;0.45;;
37517;SDS011;23366;52.498;13.446;2023-07-31T09:32:43;1.73;;;0.55;;
37517;SDS011;23366;52.498;13.446;2023-07-31T09:35:22;2.40;;;0.65;;
37517;SDS011;23366;52.498;13.446;2023-07-31T09:37:59;1.85;;;0.57;;
37517;SDS011;23366;52.498;13.446;2023-07-31T09:40:31;1.00;;;0.80;;
37517;SDS011;23366;52.498;13.446;2023-07-31T09:42:59;1.55;;;0.93;;
37517;SDS011;23366;52.498;13.446;2023-07-31T09:45:26;1.20;;;0.70;;
37517;SDS011;23366;52.498;13.446;2023-07-31T09:47:52;2.33;;;0.60;;
37517;SDS011;23366;52.498;13.446;2023-07-31T09:50:19;0.82;;;0.63;;
37517;SDS011;23366;52.498;13.446;2023-07-31T09:52:46;2.53;;;0.70;;
37517;SDS011;23366;52.498;13.446;2023-07-31T09:55:12;0.80;;;0.45;;
37517;SDS011;23366;52.498;13.446;2023-07-31T09:57:41;1.30;;;0.85;;
37517;SDS011;23366;52.498;13.446;2023-07-31T10:00:10;1.15;;;0.70;;
37517;SDS011;23366;52.498;13.446;2023-07-31T10:02:37;2.30;;;1.55;;
37517;SDS011;23366;52.498;13.446;2023-07-31T10:05:04;2.40;;;1.23;;
37517;SDS011;23366;52.498;13.446;2023-07-31T10:07:30;1.58;;;1.20;;
37517;SDS011;23366;52.498;13.446;2023-07-31T10:09:59;5.45;;;1.17;;
37517;SDS011;23366;52.498;13.446;2023-07-31T10:12:28;1.50;;;1.08;;
37517;SDS011;23366;52.498;13.446;2023-07-31T10:14:55;1.95;;;0.93;;
37517;SDS011;23366;52.498;13.446;2023-07-31T10:17:21;4.78;;;1.17;;
37517;SDS011;23366;52.498;13.446;2023-07-31T10:19:49;1.20;;;0.95;;
37517;SDS011;23366;52.498;13.446;2023-07-31T10:22:15;1.27;;;1.10;;
37517;SDS011;23366;52.498;13.446;2023-07-31T10:24:42;2.45;;;1.27;;
37517;SDS011;23366;52.498;13.446;2023-07-31T10:27:08;4.03;;;1.30;;
37517;SDS011;23366;52.498;13.446;2023-07-31T10:29:34;2.45;;;1.50;;
37517;SDS011;23366;52.498;13.446;2023-07-31T10:32:01;1.75;;;1.25;;
37517;SDS011;23366;52.498;13.446;2023-07-31T10:34:31;3.55;;;1.70;;
37517;SDS011;23366;52.498;13.446;2023-07-31T10:39:56;4.00;;;1.80;;
37517;SDS011;23366;52.498;13.446;2023-07-31T10:42:35;4.47;;;2.22;;
37517;SDS011;23366;52.498;13.446;2023-07-31T10:47:44;2.47;;;1.50;;
37517;SDS011;23366;52.498;13.446;2023-07-31T10:50:12;3.35;;;1.80;;
37517;SDS011;23366;52.498;13.446;2023-07-31T10:52:38;2.13;;;1.52;;
37517;SDS011;23366;52.498;13.446;2023-07-31T10:57:51;3.28;;;1.80;;
37517;SDS011;23366;52.498;13.446;2023-07-31T11:00:18;3.40;;;1.45;;
37517;SDS011;23366;52.498;13.446;2023-07-31T11:02:59;2.53;;;1.45;;
37517;SDS011;23366;52.498;13.446;2023-07-31T11:05:42;2.38;;;1.55;;
37517;SDS011;23366;52.498;13.446;2023-07-31T11:10:46;5.03;;;1.50;;
37517;SDS011;23366;52.498;13.446;2023-07-31T11:13:13;4.78;;;1.88;;
37517;SDS011;23366;52.498;13.446;2023-07-31T11:15:39;5.88;;;1.80;;
37517;SDS011;23366;52.498;13.446;2023-07-31T11:18:04;2.13;;;1.10;;
37517;SDS011;23366;52.498;13.446;2023-07-31T11:20:31;3.90;;;1.55;;
37517;SDS011;23366;52.498;13.446;2023-07-31T11:23:01;3.58;;;2.22;;
37517;SDS011;23366;52.498;13.446;2023-07-31T11:25:28;2.42;;;1.90;;
37517;SDS011;23366;52.498;13.446;2023-07-31T11:27:55;2.85;;;1.40;;
37517;SDS011;23366;52.498;13.446;2023-07-31T11:30:21;3.47;;;1.75;;
37517;SDS011;23366;52.498;13.446;2023-07-31T11:32:46;2.30;;;1.45;;
37517;SDS011;23366;52.498;13.446;2023-07-31T11:35:12;3.55;;;1.55;;
37517;SDS011;23366;52.498;13.446;2023-07-31T11:37:38;2.05;;;1.15;;
37517;SDS011;23366;52.498;13.446;2023-07-31T11:40:05;4.00;;;1.88;;
37517;SDS011;23366;52.498;13.446;2023-07-31T11:42:31;3.70;;;2.25;;
37517;SDS011;23366;52.498;13.446;2023-07-31T11:44:57;3.35;;;2.03;;
37517;SDS011;23366;52.498;13.446;2023-07-31T11:47:22;3.13;;;1.80;;
37517;SDS011;23366;52.498;13.446;2023-07-31T11:49:50;2.97;;;1.63;;
37517;SDS011;23366;52.498;13.446;2023-07-31T11:52:16;3.65;;;2.00;;
37517;SDS011;23366;52.498;13.446;2023-07-31T11:54:45;3.53;;;1.52;;
37517;SDS011;23366;52.498;13.446;2023-07-31T11:57:11;5.40;;;2.00;;
37517;SDS011;23366;52.498;13.446;2023-07-31T11:59:37;2.95;;;1.70;;
37517;SDS011;23366;52.498;13.446;2023-07-31T12:02:03;2.80;;;1.42;;
37517;SDS011;23366;52.498;13.446;2023-07-31T12:04:29;2.25;;;1.40;;
37517;SDS011;23366;52.498;13.446;2023-07-31T12:06:55;3.63;;;1.63;;
37517;SDS011;23366;52.498;13.446;2023-07-31T12:09:20;2.80;;;1.48;;
37517;SDS011;23366;52.498;13.446;2023-07-31T12:11:46;2.80;;;1.70;;
37517;SDS011;23366;52.498;13.446;2023-07-31T12:14:23;3.78;;;1.92;;
37517;SDS011;23366;52.498;13.446;2023-07-31T12:16:53;4.88;;;2.30;;
37517;SDS011;23366;52.498;13.446;2023-07-31T12:19:20;2.05;;;1.35;;
37517;SDS011;23366;52.498;13.446;2023-07-31T12:21:46;3.25;;;1.20;;
37517;SDS011;23366;52.498;13.446;2023-07-31T12:24:12;2.50;;;1.40;;
37517;SDS011;23366;52.498;13.446;2023-07-31T12:26:37;3.97;;;1.60;;
37517;SDS011;23366;52.498;13.446;2023-07-31T12:29:05;3.55;;;1.80;;
37517;SDS011;23366;52.498;13.446;2023-07-31T12:31:33;2.08;;;1.30;;
37517;SDS011;23366;52.498;13.446;2023-07-31T12:33:59;2.33;;;1.20;;
37517;SDS011;23366;52.498;13.446;2023-07-31T12:36:24;2.97;;;1.90;;
37517;SDS011;23366;52.498;13.446;2023-07-31T12:38:50;4.03;;;2.90;;
37517;SDS011;23366;52.498;13.446;2023-07-31T12:41:16;2.97;;;1.40;;
37517;SDS011;23366;52.498;13.446;2023-07-31T12:43:43;3.67;;;1.30;;
37517;SDS011;23366;52.498;13.446;2023-07-31T12:46:09;3.60;;;1.50;;
37517;SDS011;23366;52.498;13.446;2023-07-31T12:48:35;3.83;;;1.63;;
37517;SDS011;23366;52.498;13.446;2023-07-31T12:51:02;2.85;;;1.48;;
37517;SDS011;23366;52.498;13.446;2023-07-31T12:53:28;2.70;;;1.60;;
37517;SDS011;23366;52.498;13.446;2023-07-31T12:55:54;5.75;;;2.38;;
37517;SDS011;23366;52.498;13.446;2023-07-31T12:58:20;3.20;;;1.35;;
37517;SDS011;23366;52.498;13.446;2023-07-31T13:00:45;2.53;;;1.50;;
37517;SDS011;23366;52.498;13.446;2023-07-31T13:03:11;1.50;;;0.73;;
37517;SDS011;23366;52.498;13.446;2023-07-31T13:05:36;2.40;;;1.05;;
37517;SDS011;23366;52.498;13.446;2023-07-31T13:08:02;1.83;;;0.57;;
37517;SDS011;23366;52.498;13.446;2023-07-31T13:10:28;4.65;;;1.25;;
37517;SDS011;23366;52.498;13.446;2023-07-31T13:12:54;2.75;;;1.13;;
37517;SDS011;23366;52.498;13.446;2023-07-31T13:15:20;1.75;;;0.93;;
37517;SDS011;23366;52.498;13.446;2023-07-31T13:17:45;2.28;;;1.33;;
37517;SDS011;23366;52.498;13.446;2023-07-31T13:20:11;1.55;;;0.65;;
37517;SDS011;23366;52.498;13.446;2023-07-31T13:22:37;1.00;;;0.90;;
37517;SDS011;23366;52.498;13.446;2023-07-31T13:25:02;3.90;;;1.42;;
37517;SDS011;23366;52.498;13.446;2023-07-31T13:27:28;1.25;;;0.82;;
37517;SDS011;23366;52.498;13.446;2023-07-31T13:29:55;3.90;;;0.73;;
37517;SDS011;23366;52.498;13.446;2023-07-31T13:32:20;2.97;;;1.50;;
37517;SDS011;23366;52.498;13.446;2023-07-31T13:34:46;3.97;;;2.13;;
37517;SDS011;23366;52.498;13.446;2023-07-31T13:37:13;2.47;;;1.58;;
37517;SDS011;23366;52.498;13.446;2023-07-31T13:39:38;2.42;;;1.50;;
37517;SDS011;23366;52.498;13.446;2023-07-31T13:42:05;5.97;;;1.67;;
37517;SDS011;23366;52.498;13.446;2023-07-31T13:44:33;1.17;;;0.95;;
37517;SDS011;23366;52.498;13.446;2023-07-31T13:46:59;4.07;;;1.70;;
37517;SDS011;23366;52.498;13.446;2023-07-31T13:49:25;3.42;;;2.05;;
37517;SDS011;23366;52.498;13.446;2023-07-31T13:51:50;4.93;;;1.55;;
37517;SDS011;23366;52.498;13.446;2023-07-31T13:54:16;4.30;;;1.60;;
37517;SDS011;23366;52.498;13.446;2023-07-31T13:56:42;3.17;;;1.85;;
37517;SDS011;23366;52.498;13.446;2023-07-31T13:59:08;3.25;;;1.55;;
37517;SDS011;23366;52.498;13.446;2023-07-31T14:01:33;4.70;;;1.65;;
37517;SDS011;23366;52.498;13.446;2023-07-31T14:03:59;3.30;;;1.88;;
37517;SDS011;23366;52.498;13.446;2023-07-31T14:06:24;2.60;;;1.80;;
37517;SDS011;23366;52.498;13.446;2023-07-31T14:08:50;3.13;;;1.30;;
37517;SDS011;23366;52.498;13.446;2023-07-31T14:11:15;2.17;;;1.55;;
37517;SDS011;23366;52.498;13.446;2023-07-31T14:13:40;3.13;;;1.38;;
37517;SDS011;23366;52.498;13.446;2023-07-31T14:16:06;5.85;;;1.95;;
37517;SDS011;23366;52.498;13.446;2023-07-31T14:18:31;2.53;;;1.48;;
37517;SDS011;23366;52.498;13.446;2023-07-31T14:20:57;3.78;;;1.73;;
37517;SDS011;23366;52.498;13.446;2023-07-31T14:23:22;3.00;;;1.95;;
37517;SDS011;23366;52.498;13.446;2023-07-31T14:25:48;5.07;;;1.65;;
37517;SDS011;23366;52.498;13.446;2023-07-31T14:28:13;3.70;;;1.50;;
37517;SDS011;23366;52.498;13.446;2023-07-31T14:30:39;3.22;;;2.05;;
37517;SDS011;23366;52.498;13.446;2023-07-31T14:33:04;5.28;;;2.08;;
37517;SDS011;23366;52.498;13.446;2023-07-31T14:35:30;5.43;;;2.00;;
37517;SDS011;23366;52.498;13.446;2023-07-31T14:37:55;3.30;;;1.75;;
37517;SDS011;23366;52.498;13.446;2023-07-31T14:40:21;4.40;;;2.95;;
37517;SDS011;23366;52.498;13.446;2023-07-31T14:42:46;3.85;;;1.88;;
37517;SDS011;23366;52.498;13.446;2023-07-31T14:45:12;3.13;;;1.95;;
37517;SDS011;23366;52.498;13.446;2023-07-31T14:47:37;2.45;;;1.38;;
37517;SDS011;23366;52.498;13.446;2023-07-31T14:50:03;3.42;;;1.20;;
37517;SDS011;23366;52.498;13.446;2023-07-31T14:52:29;3.00;;;1.58;;
37517;SDS011;23366;52.498;13.446;2023-07-31T14:54:54;2.13;;;1.40;;